Time;durP1;ratioP1;P1;durP2;ratioP2;P2;SDS_P1;SDS_P2;PMS_P1;PMS_P2;Temp;Humidity;BMP_temperature;BMP_pressure;BME280_temperature;BME280_humidity;BME280_pressure;Samples;Min_cycle;Max_cycle;Signal;HPM_P1;HPM_P2
2021/11/06 00:01:33;;;;;;;12.27;8.73;;;6.80;84.50;;;;;;5070990;28;20190;-66
2021/11/06 00:04:01;;;;;;;15.73;11.75;;;6.80;84.50;;;;;;5071776;28;20190;-66
2021/11/06 00:06:44;;;;;;;19.65;10.73;;;6.80;84.40;;;;;;5071307;28;20196;-66
2021/11/06 00:09:11;;;;;;;11.30;7.97;;;6.80;84.60;;;;;;5067213;28;20194;-66
2021/11/06 00:11:39;;;;;;;13.40;8.63;;;6.80;84.50;;;;;;5070606;28;20225;-66
2021/11/06 00:14:07;;;;;;;15.82;8.82;;;6.80;84.50;;;;;;5071058;28;20178;-66
2021/11/06 00:16:34;;;;;;;18.33;9.88;;;6.80;84.40;;;;;;5071263;28;20218;-67
2021/11/06 00:19:01;;;;;;;10.50;7.97;;;6.80;84.20;;;;;;5066508;28;20178;-66
2021/11/06 00:21:37;;;;;;;8.38;6.80;;;6.80;84.20;;;;;;5071347;28;20225;-66
2021/11/06 00:24:05;;;;;;;11.60;8.25;;;6.80;84.30;;;;;;5072049;28;20697;-66
2021/11/06 00:26:33;;;;;;;12.65;7.18;;;6.80;84.40;;;;;;5072450;28;20667;-66
2021/11/06 00:29:00;;;;;;;10.30;6.03;;;6.80;84.70;;;;;;5071830;28;20174;-66
2021/11/06 00:31:27;;;;;;;8.50;6.43;;;6.80;84.90;;;;;;5072446;28;20641;-67
2021/11/06 00:33:59;;;;;;;8.50;5.85;;;6.80;84.80;;;;;;5071891;28;20277;-66
2021/11/06 00:36:26;;;;;;;7.20;6.00;;;6.80;84.70;;;;;;5072383;28;20285;-66
2021/11/06 00:38:54;;;;;;;7.07;6.00;;;6.80;84.70;;;;;;5071280;28;20671;-66
2021/11/06 00:41:26;;;;;;;7.32;5.90;;;6.80;84.50;;;;;;5072338;28;20190;-66
2021/11/06 00:43:55;;;;;;;7.93;6.20;;;6.80;84.50;;;;;;5071591;28;20286;-66
2021/11/06 00:46:22;;;;;;;11.50;6.38;;;6.80;84.50;;;;;;5072459;28;20285;-66
2021/11/06 00:48:50;;;;;;;7.53;5.78;;;6.80;84.30;;;;;;5071685;28;20226;-66
2021/11/06 00:51:19;;;;;;;9.57;6.50;;;6.80;84.30;;;;;;5072296;28;20197;-66
2021/11/06 00:53:48;;;;;;;7.38;6.43;;;6.80;84.00;;;;;;5072245;28;20198;-66
2021/11/06 00:56:18;;;;;;;9.10;6.50;;;6.90;84.20;;;;;;5052409;28;20194;-66
2021/11/06 00:58:52;;;;;;;9.35;7.30;;;6.80;83.90;;;;;;5052177;28;20195;-66
2021/11/06 01:01:24;;;;;;;10.32;8.13;;;6.80;83.90;;;;;;5052025;28;20187;-66
2021/11/06 01:03:58;;;;;;;13.15;8.18;;;6.80;84.00;;;;;;5052061;28;20197;-66
2021/11/06 01:06:27;;;;;;;12.48;7.80;;;6.80;83.60;;;;;;5072008;28;20192;-66
2021/11/06 01:08:56;;;;;;;8.00;5.13;;;6.80;83.50;;;;;;5072034;28;20302;-66
2021/11/06 01:11:26;;;;;;;8.82;5.80;;;6.80;84.00;;;;;;5072063;28;20656;-66
2021/11/06 01:14:00;;;;;;;10.68;6.90;;;6.80;83.90;;;;;;5071811;28;20178;-66
2021/11/06 01:16:33;;;;;;;7.53;5.63;;;6.70;84.40;;;;;;5072314;28;20190;-66
2021/11/06 01:19:03;;;;;;;12.32;6.03;;;6.70;84.10;;;;;;5071554;28;20293;-66
2021/11/06 01:21:31;;;;;;;9.25;6.20;;;6.60;84.40;;;;;;5071444;28;20185;-66
2021/11/06 01:23:58;;;;;;;6.25;4.85;;;6.60;84.40;;;;;;5071981;28;20194;-66
2021/11/06 01:26:30;;;;;;;6.78;4.82;;;6.60;83.90;;;;;;5071573;28;20193;-66
2021/11/06 01:28:59;;;;;;;7.93;5.38;;;6.60;84.20;;;;;;5071939;28;20259;-66
2021/11/06 01:31:27;;;;;;;7.13;5.88;;;6.60;84.70;;;;;;5071340;28;20186;-66
2021/11/06 01:33:59;;;;;;;8.68;6.15;;;6.60;84.50;;;;;;5072148;28;20241;-66
2021/11/06 01:36:31;;;;;;;8.45;5.90;;;6.60;84.40;;;;;;5071239;28;20209;-66
2021/11/06 01:39:01;;;;;;;7.43;5.28;;;6.60;85.00;;;;;;5071200;28;20205;-66
2021/11/06 01:41:28;;;;;;;8.13;6.13;;;6.50;84.80;;;;;;5071500;28;20626;-65
2021/11/06 01:43:56;;;;;;;6.65;5.47;;;6.50;85.10;;;;;;5071546;28;20201;-66
2021/11/06 01:46:25;;;;;;;7.25;6.00;;;6.50;85.00;;;;;;5071474;28;20187;-66
2021/11/06 01:48:57;;;;;;;6.95;5.25;;;6.50;85.30;;;;;;5074823;28;20692;-66
2021/11/06 01:51:25;;;;;;;7.80;5.85;;;6.50;85.60;;;;;;5074901;28;20193;-65
2021/11/06 01:53:53;;;;;;;8.60;5.32;;;6.60;85.80;;;;;;5075475;28;20218;-66
2021/11/06 01:56:21;;;;;;;7.15;5.63;;;6.60;85.80;;;;;;5075432;28;20190;-66
2021/11/06 01:58:49;;;;;;;7.65;5.68;;;6.60;85.70;;;;;;5075586;28;20200;-66
2021/11/06 02:01:19;;;;;;;11.15;6.72;;;6.60;85.80;;;;;;5075386;28;20198;-66
2021/11/06 02:03:53;;;;;;;8.23;5.75;;;6.60;85.90;;;;;;5075492;28;20190;-66
2021/11/06 02:06:20;;;;;;;6.10;5.50;;;6.60;86.00;;;;;;5075039;28;20186;-66
2021/11/06 02:08:50;;;;;;;6.85;5.28;;;6.70;86.00;;;;;;5075109;28;20198;-66
2021/11/06 02:11:20;;;;;;;7.55;6.40;;;6.70;86.10;;;;;;5074922;28;20580;-66
2021/11/06 02:13:53;;;;;;;6.20;5.40;;;6.70;85.60;;;;;;5075172;28;20229;-66
2021/11/06 02:16:21;;;;;;;8.15;6.10;;;6.70;86.00;;;;;;5074703;28;20194;-66
2021/11/06 02:18:48;;;;;;;7.07;5.90;;;6.70;86.30;;;;;;5075142;28;20669;-66
2021/11/06 02:21:18;;;;;;;6.60;5.68;;;6.70;86.10;;;;;;5074611;28;20189;-65
2021/11/06 02:23:54;;;;;;;8.27;5.97;;;6.70;86.20;;;;;;5075056;28;20201;-65
2021/11/06 02:26:24;;;;;;;7.80;5.88;;;6.70;85.70;;;;;;5074547;28;20579;-65
2021/11/06 02:28:53;;;;;;;7.22;5.40;;;6.70;85.90;;;;;;5075295;28;20198;-65
2021/11/06 02:31:21;;;;;;;8.52;6.22;;;6.70;86.20;;;;;;5074185;28;20195;-66
2021/11/06 02:33:53;;;;;;;7.70;6.40;;;6.70;86.00;;;;;;5074916;28;20688;-65
2021/11/06 02:36:22;;;;;;;6.65;5.40;;;6.70;86.30;;;;;;5074328;28;20182;-65
2021/11/06 02:38:50;;;;;;;6.65;5.57;;;6.70;86.30;;;;;;5074909;28;20283;-65
2021/11/06 02:41:18;;;;;;;8.43;5.30;;;6.70;86.10;;;;;;5073968;28;20186;-65
2021/11/06 02:43:45;;;;;;;5.30;4.75;;;6.70;85.80;;;;;;5074683;28;20192;-65
2021/11/06 02:46:17;;;;;;;5.60;4.20;;;6.70;85.80;;;;;;5074108;28;20190;-65
2021/11/06 02:48:46;;;;;;;7.47;5.03;;;6.80;85.50;;;;;;5074453;28;20308;-65
2021/11/06 02:51:19;;;;;;;5.18;4.20;;;6.80;85.20;;;;;;5074284;28;20190;-64
2021/11/06 02:53:48;;;;;;;5.10;3.70;;;6.80;85.10;;;;;;5074498;28;20224;-65
2021/11/06 02:56:24;;;;;;;6.00;3.75;;;6.80;84.60;;;;;;5074344;28;20220;-65
2021/11/06 02:58:52;;;;;;;4.88;3.88;;;6.80;84.20;;;;;;5072774;28;20232;-66
2021/11/06 03:01:20;;;;;;;4.63;3.03;;;6.80;84.20;;;;;;5073809;28;20621;-67
2021/11/06 03:03:50;;;;;;;4.68;3.05;;;6.80;83.40;;;;;;5074070;28;20248;-66
2021/11/06 03:06:23;;;;;;;5.22;3.25;;;6.80;83.50;;;;;;5073776;28;20190;-66
2021/11/06 03:08:52;;;;;;;5.22;3.58;;;6.90;83.50;;;;;;5074212;28;20288;-66
2021/11/06 03:11:27;;;;;;;4.80;3.35;;;6.90;83.30;;;;;;5073353;28;20706;-67
2021/11/06 03:13:57;;;;;;;5.22;3.85;;;6.90;83.40;;;;;;5053762;28;20789;-67
2021/11/06 03:16:27;;;;;;;5.63;3.65;;;6.90;83.30;;;;;;5058449;28;20190;-66
2021/11/06 03:18:57;;;;;;;5.65;3.28;;;6.90;82.70;;;;;;5073674;28;20202;-66
2021/11/06 03:21:27;;;;;;;3.83;3.38;;;6.90;82.60;;;;;;5073637;28;20228;-66
2021/11/06 03:24:02;;;;;;;3.65;2.55;;;6.90;82.60;;;;;;5073739;28;20285;-66
2021/11/06 03:26:29;;;;;;;4.40;3.25;;;6.90;82.80;;;;;;5072969;28;20209;-66
2021/11/06 03:29:01;;;;;;;4.03;2.80;;;6.90;82.20;;;;;;5073343;28;20204;-67
2021/11/06 03:31:45;;;;;;;6.30;2.67;;;6.90;82.00;;;;;;5073545;28;20182;-66
2021/11/06 03:34:13;;;;;;;3.65;2.30;;;6.90;82.10;;;;;;5073177;28;20246;-66
2021/11/06 03:36:44;;;;;;;3.80;2.65;;;6.90;81.90;;;;;;5073443;28;20213;-65
2021/11/06 03:39:19;;;;;;;3.42;2.53;;;6.90;81.70;;;;;;5072526;28;20182;-65
2021/11/06 03:41:49;;;;;;;3.30;2.67;;;6.80;81.50;;;;;;5073687;28;20194;-66
2021/11/06 03:44:17;;;;;;;4.50;2.92;;;6.80;81.10;;;;;;5073019;28;20190;-66
2021/11/06 03:46:47;;;;;;;4.15;2.70;;;6.70;80.80;;;;;;5073441;28;20198;-65
2021/11/06 03:49:17;;;;;;;3.95;2.60;;;6.70;80.70;;;;;;5072911;28;20747;-65
2021/11/06 03:51:56;;;;;;;3.97;2.60;;;6.60;80.90;;;;;;5073187;28;20660;-66
2021/11/06 03:54:24;;;;;;;3.88;2.40;;;6.50;81.00;;;;;;5072525;28;20228;-66
2021/11/06 03:56:52;;;;;;;3.97;3.13;;;6.40;80.90;;;;;;5073055;28;20714;-66
2021/11/06 03:59:19;;;;;;;5.30;2.70;;;6.40;80.50;;;;;;5072493;28;20186;-66
2021/11/06 04:01:50;;;;;;;3.88;2.67;;;6.30;80.50;;;;;;5072798;28;20190;-65
2021/11/06 04:04:28;;;;;;;3.42;2.63;;;6.20;80.60;;;;;;5072797;28;20190;-66
2021/11/06 04:07:00;;;;;;;3.00;2.10;;;6.20;80.80;;;;;;5073357;28;20197;-66
2021/11/06 04:09:33;;;;;;;5.13;2.35;;;6.10;81.20;;;;;;5072623;28;20190;-66
2021/11/06 04:12:02;;;;;;;7.63;2.40;;;6.10;81.50;;;;;;5072052;28;20186;-66
2021/11/06 04:14:34;;;;;;;3.55;1.85;;;6.00;81.50;;;;;;5072467;28;20221;-66
2021/11/06 04:17:01;;;;;;;4.53;2.53;;;6.00;81.50;;;;;;5072374;28;20225;-66
2021/11/06 04:19:30;;;;;;;3.40;1.95;;;5.90;81.10;;;;;;5072500;28;20202;-66
2021/11/06 04:22:00;;;;;;;3.40;2.67;;;5.90;80.80;;;;;;5072175;28;20210;-66
2021/11/06 04:24:29;;;;;;;3.10;1.90;;;5.80;80.60;;;;;;5072495;28;20232;-66
2021/11/06 04:26:57;;;;;;;2.70;2.10;;;5.80;80.20;;;;;;5072044;28;20190;-66
2021/11/06 04:29:25;;;;;;;3.28;2.30;;;5.70;79.90;;;;;;5072396;28;20667;-66
2021/11/06 04:31:55;;;;;;;3.10;2.20;;;5.60;80.10;;;;;;5071499;28;20657;-66
2021/11/06 04:34:37;;;;;;;3.63;2.50;;;5.60;80.30;;;;;;5072491;28;20261;-65
2021/11/06 04:37:05;;;;;;;3.25;2.65;;;5.50;80.10;;;;;;5071953;28;20244;-67
2021/11/06 04:39:36;;;;;;;3.47;2.70;;;5.40;80.30;;;;;;5072543;28;20186;-65
2021/11/06 04:42:04;;;;;;;3.78;2.75;;;5.40;80.10;;;;;;5071676;28;20182;-65
2021/11/06 04:44:32;;;;;;;3.72;2.20;;;5.30;79.80;;;;;;5071932;28;20229;-66
2021/11/06 04:46:59;;;;;;;3.15;2.42;;;5.30;79.70;;;;;;5071514;28;20214;-66
2021/11/06 04:49:28;;;;;;;3.00;2.40;;;5.20;79.50;;;;;;5072349;28;20201;-66
2021/11/06 04:51:55;;;;;;;4.93;2.63;;;5.10;79.40;;;;;;5071538;28;20235;-66
2021/11/06 04:54:27;;;;;;;4.45;2.80;;;5.00;79.40;;;;;;5071929;28;20700;-69
2021/11/06 04:56:56;;;;;;;4.32;3.00;;;4.90;79.90;;;;;;5071957;28;20574;-66
2021/11/06 04:59:25;;;;;;;3.00;2.30;;;4.90;80.30;;;;;;5071986;28;20197;-66
2021/11/06 05:01:54;;;;;;;4.72;3.00;;;4.90;79.80;;;;;;5071538;28;20633;-65
2021/11/06 05:04:23;;;;;;;4.07;2.75;;;4.80;79.50;;;;;;5072049;28;20197;-66
2021/11/06 05:06:51;;;;;;;4.85;3.58;;;4.70;79.70;;;;;;5071495;28;20183;-66
2021/11/06 05:09:22;;;;;;;5.35;3.60;;;4.70;80.20;;;;;;5071906;28;20185;-66
2021/11/06 05:11:53;;;;;;;5.30;3.65;;;4.60;80.80;;;;;;5071410;28;20186;-66
2021/11/06 05:14:22;;;;;;;5.10;3.20;;;4.60;81.10;;;;;;5071697;28;20611;-66
2021/11/06 05:16:50;;;;;;;3.67;2.70;;;4.50;81.30;;;;;;5071495;28;20182;-66
2021/11/06 05:19:18;;;;;;;4.70;3.30;;;4.50;80.70;;;;;;5071692;28;20190;-65
2021/11/06 05:21:46;;;;;;;3.83;3.33;;;4.30;81.50;;;;;;5070712;28;20225;-65
2021/11/06 05:24:13;;;;;;;4.35;3.65;;;4.20;81.80;;;;;;5071696;28;20190;-65
2021/11/06 05:26:43;;;;;;;4.18;3.40;;;4.10;82.30;;;;;;5071489;28;20239;-66
2021/11/06 05:29:11;;;;;;;5.22;3.10;;;4.00;82.90;;;;;;5071761;28;20190;-65
2021/11/06 05:31:41;;;;;;;4.90;3.50;;;3.90;83.50;;;;;;5071141;28;20239;-65
2021/11/06 05:34:11;;;;;;;4.28;3.35;;;4.00;83.60;;;;;;5071602;28;20222;-65
2021/11/06 05:36:40;;;;;;;3.22;2.25;;;3.90;83.50;;;;;;5070770;28;20216;-66
2021/11/06 05:39:13;;;;;;;3.70;2.97;;;3.90;83.20;;;;;;5071592;28;20255;-66
2021/11/06 05:41:40;;;;;;;6.15;3.80;;;3.80;83.30;;;;;;5071225;28;20223;-67
2021/11/06 05:44:08;;;;;;;3.83;3.10;;;3.80;83.30;;;;;;5071607;28;20194;-66
2021/11/06 05:46:37;;;;;;;3.75;3.28;;;3.80;83.40;;;;;;5071528;28;20196;-66
2021/11/06 05:49:06;;;;;;;2.72;2.20;;;3.80;83.20;;;;;;5071174;28;20217;-65
2021/11/06 05:51:35;;;;;;;5.70;3.95;;;3.80;82.70;;;;;;5071605;28;20251;-66
2021/11/06 05:54:16;;;;;;;7.50;4.85;;;3.70;82.60;;;;;;5071156;28;20214;-66
2021/11/06 05:56:43;;;;;;;6.88;3.80;;;3.70;82.60;;;;;;5071647;28;20225;-67
2021/11/06 05:59:11;;;;;;;8.18;4.43;;;3.70;82.90;;;;;;5051471;28;20195;-66
2021/11/06 06:01:39;;;;;;;4.75;3.97;;;3.60;82.40;;;;;;5051580;28;20206;-66
2021/11/06 06:04:14;;;;;;;6.95;3.88;;;3.60;82.80;;;;;;5070628;28;20198;-66
2021/11/06 06:06:46;;;;;;;3.78;2.80;;;3.60;82.60;;;;;;5071239;28;20602;-67
2021/11/06 06:09:17;;;;;;;3.33;2.90;;;3.60;81.90;;;;;;5071122;28;20266;-66
2021/11/06 06:11:45;;;;;;;7.07;3.10;;;3.50;80.80;;;;;;5071261;28;20198;-68
2021/11/06 06:14:17;;;;;;;4.28;3.05;;;3.40;80.10;;;;;;5070489;28;20671;-66
2021/11/06 06:16:46;;;;;;;3.58;2.95;;;3.30;80.70;;;;;;5071286;28;20206;-66
2021/11/06 06:19:15;;;;;;;5.10;3.42;;;3.20;80.70;;;;;;5070966;28;20201;-66
2021/11/06 06:21:42;;;;;;;5.80;3.03;;;3.10;80.50;;;;;;5071321;28;20232;-66
2021/11/06 06:24:11;;;;;;;6.53;4.57;;;3.10;81.20;;;;;;5070833;28;20259;-66
2021/11/06 06:26:41;;;;;;;4.72;3.30;;;3.10;81.20;;;;;;5071346;28;20644;-66
2021/11/06 06:29:19;;;;;;;4.85;3.83;;;3.10;81.60;;;;;;5071005;28;20195;-66
2021/11/06 06:31:47;;;;;;;4.50;4.00;;;3.20;82.00;;;;;;5071097;28;20190;-66
2021/11/06 06:34:18;;;;;;;4.65;3.70;;;3.30;82.20;;;;;;5073508;28;20264;-66
2021/11/06 06:36:46;;;;;;;5.47;3.75;;;3.30;82.00;;;;;;5074491;28;20197;-66
2021/11/06 06:39:15;;;;;;;5.03;4.53;;;3.40;82.80;;;;;;5073791;28;20186;-66
2021/11/06 06:41:44;;;;;;;8.13;4.88;;;3.70;80.50;;;;;;5074605;28;20179;-66
2021/11/06 06:44:13;;;;;;;6.13;4.65;;;3.60;81.10;;;;;;5074610;28;20667;-66
2021/11/06 06:46:45;;;;;;;6.68;5.05;;;3.70;81.50;;;;;;5074015;28;20191;-66
2021/11/06 06:49:26;;;;;;;5.88;4.70;;;3.80;82.30;;;;;;5074944;28;20576;-66
2021/11/06 06:51:56;;;;;;;5.75;4.68;;;4.10;81.50;;;;;;5074371;28;20533;-66
2021/11/06 06:54:24;;;;;;;4.80;4.00;;;4.30;83.10;;;;;;5074705;28;20527;-66
2021/11/06 06:56:53;;;;;;;7.90;4.97;;;4.50;80.30;;;;;;5073425;28;20311;-67
2021/11/06 06:59:23;;;;;;;4.97;4.47;;;4.70;79.60;;;;;;5074511;28;20258;-66
2021/11/06 07:01:51;;;;;;;6.45;4.53;;;5.00;80.00;;;;;;5073898;28;20190;-66
2021/11/06 07:04:21;;;;;;;8.27;5.07;;;5.30;79.10;;;;;;5074531;28;20596;-66
2021/11/06 07:06:57;;;;;;;6.55;5.47;;;5.60;79.40;;;;;;5074191;28;20235;-66
2021/11/06 07:09:27;;;;;;;7.50;4.85;;;5.90;78.40;;;;;;5074317;28;20225;-66
2021/11/06 07:12:00;;;;;;;6.45;4.50;;;6.20;76.40;;;;;;5073807;28;20655;-67
2021/11/06 07:14:27;;;;;;;6.30;4.63;;;6.60;74.90;;;;;;5074056;28;20218;-66
2021/11/06 07:16:55;;;;;;;9.45;5.63;;;6.90;73.00;;;;;;5073597;28;20186;-67
2021/11/06 07:19:26;;;;;;;14.10;7.30;;;7.20;72.80;;;;;;5074109;28;20220;-67
2021/11/06 07:21:53;;;;;;;9.43;7.03;;;7.60;70.20;;;;;;5073373;28;20200;-67
2021/11/06 07:24:25;;;;;;;12.68;6.55;;;7.80;66.50;;;;;;5074003;28;20190;-68
2021/11/06 07:26:57;;;;;;;4.32;3.42;;;8.00;67.40;;;;;;5072735;28;20182;-67
2021/11/06 07:29:32;;;;;;;8.18;5.82;;;8.40;66.40;;;;;;5073348;28;20186;-67
2021/11/06 07:32:00;;;;;;;10.40;6.00;;;8.70;62.20;;;;;;5073331;28;20193;-67
2021/11/06 07:34:29;;;;;;;12.57;7.18;;;8.90;63.30;;;;;;5073211;28;20287;-67
2021/11/06 07:37:00;;;;;;;16.50;6.18;;;9.10;62.60;;;;;;5073528;28;20239;-67
2021/11/06 07:39:29;;;;;;;10.07;6.57;;;9.30;60.90;;;;;;5073426;28;20648;-67
2021/11/06 07:42:01;;;;;;;8.80;5.50;;;9.50;58.40;;;;;;5073491;28;20194;-68
2021/11/06 07:44:30;;;;;;;6.75;4.22;;;9.60;58.40;;;;;;5072644;28;20216;-67
2021/11/06 07:47:00;;;;;;;6.30;4.10;;;9.90;57.50;;;;;;5072391;28;20197;-67
2021/11/06 07:49:38;;;;;;;4.70;3.22;;;10.20;56.50;;;;;;5073277;28;20232;-67
2021/11/06 07:52:08;;;;;;;30.88;23.50;;;10.50;55.80;;;;;;5072824;28;20181;-67
2021/11/06 07:54:44;;;;;;;57.25;43.55;;;10.90;55.40;;;;;;5073316;28;20787;-68
2021/11/06 07:57:19;;;;;;;41.38;26.70;;;11.30;54.80;;;;;;5073257;28;20581;-67
2021/11/06 07:59:54;;;;;;;29.77;21.83;;;11.80;54.90;;;;;;5073573;28;20216;-67
2021/11/06 08:02:37;;;;;;;43.00;33.47;;;12.30;53.00;;;;;;5069218;28;20188;-69
2021/11/06 08:05:10;;;;;;;31.95;25.13;;;12.70;52.10;;;;;;5069601;28;20193;-68
2021/11/06 08:07:46;;;;;;;26.95;19.77;;;13.30;50.40;;;;;;5071048;28;20764;-67
2021/11/06 08:10:30;;;;;;;25.63;21.42;;;13.70;49.30;;;;;;5071951;28;20289;-68
2021/11/06 08:13:13;;;;;;;6.57;5.78;;;14.10;47.40;;;;;;5071221;28;20182;-68
2021/11/06 08:15:49;;;;;;;4.82;3.80;;;14.50;45.90;;;;;;5070776;28;20261;-68
2021/11/06 08:18:21;;;;;;;3.85;3.45;;;14.90;45.20;;;;;;5071021;28;20224;-68
2021/11/06 08:20:51;;;;;;;4.90;3.97;;;15.30;43.90;;;;;;5071280;28;20202;-69
2021/11/06 08:23:22;;;;;;;8.37;5.43;;;15.60;43.50;;;;;;5067573;28;20432;-67
2021/11/06 08:25:54;;;;;;;4.47;4.07;;;15.80;42.50;;;;;;5071527;28;20445;-67
2021/11/06 08:28:22;;;;;;;5.97;5.10;;;16.30;41.90;;;;;;5070814;28;20930;-68
2021/11/06 08:30:53;;;;;;;11.70;9.03;;;16.70;41.40;;;;;;5070171;28;20464;-68
2021/11/06 08:33:21;;;;;;;6.10;5.40;;;17.10;41.20;;;;;;5070253;28;20441;-68
2021/11/06 08:35:59;;;;;;;10.57;8.80;;;17.60;39.80;;;;;;5071076;28;20515;-68
2021/11/06 08:38:29;;;;;;;11.47;9.30;;;18.10;38.10;;;;;;5068685;28;20506;-68
2021/11/06 08:40:59;;;;;;;20.10;14.80;;;18.50;37.70;;;;;;5071217;28;20468;-69
2021/11/06 08:43:26;;;;;;;25.77;20.60;;;18.90;36.70;;;;;;5067235;28;20442;-69
2021/11/06 08:45:53;;;;;;;8.10;6.50;;;19.30;35.10;;;;;;5071259;28;20456;-68
2021/11/06 08:48:21;;;;;;;6.20;5.03;;;19.70;33.60;;;;;;5071008;28;20567;-68
2021/11/06 08:50:48;;;;;;;13.13;10.53;;;20.00;33.10;;;;;;5071122;28;20536;-68
2021/11/06 08:53:17;;;;;;;28.53;21.17;;;20.50;33.70;;;;;;5070899;28;20428;-68
2021/11/06 08:55:49;;;;;;;5.70;4.37;;;20.90;32.30;;;;;;5070960;28;20526;-68
2021/11/06 08:58:16;;;;;;;4.93;3.50;;;21.20;30.40;;;;;;5070135;28;20480;-69
2021/11/06 09:00:46;;;;;;;4.80;3.73;;;21.80;29.80;;;;;;5066734;28;20432;-69
2021/11/06 09:03:18;;;;;;;5.27;4.13;;;22.50;28.90;;;;;;5068778;28;20842;-68
2021/11/06 09:05:50;;;;;;;13.77;11.07;;;23.30;28.80;;;;;;5070569;28;20444;-69
2021/11/06 09:08:21;;;;;;;6.30;5.00;;;24.20;27.20;;;;;;5067579;28;20440;-68
2021/11/06 09:10:48;;;;;;;9.90;8.60;;;25.00;27.70;;;;;;5071016;28;20440;-69
2021/11/06 09:13:17;;;;;;;17.10;13.83;;;25.90;26.60;;;;;;5070396;28;20512;-69
2021/11/06 09:15:44;;;;;;;6.53;4.00;;;26.70;24.80;;;;;;5070300;28;20562;-69
2021/11/06 09:18:16;;;;;;;10.03;7.70;;;27.50;24.20;;;;;;5071173;28;20433;-67
2021/11/06 09:20:43;;;;;;;4.63;3.77;;;28.20;23.30;;;;;;5069960;28;20472;-68
2021/11/06 09:23:13;;;;;;;4.20;3.53;;;29.00;22.40;;;;;;5066310;28;20527;-67
2021/11/06 09:25:42;;;;;;;9.77;8.77;;;29.60;21.70;;;;;;5069474;28;20502;-69
2021/11/06 09:28:09;;;;;;;3.47;2.77;;;30.10;20.50;;;;;;5070126;28;20490;-67
2021/11/06 09:30:38;;;;;;;4.37;3.40;;;30.00;19.40;;;;;;5070103;28;20501;-68
2021/11/06 09:33:05;;;;;;;11.87;10.00;;;30.50;19.30;;;;;;5067067;28;20437;-67
2021/11/06 09:35:33;;;;;;;6.97;3.07;;;31.20;19.40;;;;;;5070958;28;20516;-68
2021/11/06 09:38:00;;;;;;;4.40;3.23;;;31.40;17.50;;;;;;5069879;28;20441;-69
2021/11/06 09:40:27;;;;;;;4.00;2.40;;;31.50;17.10;;;;;;5066188;28;20447;-67
2021/11/06 09:42:56;;;;;;;4.10;3.43;;;31.30;16.80;;;;;;5070423;28;20445;-68
2021/11/06 09:45:23;;;;;;;2.87;2.50;;;31.60;17.20;;;;;;5068900;28;20924;-68
2021/11/06 09:47:51;;;;;;;3.07;2.50;;;32.00;16.20;;;;;;5068943;28;20518;-68
2021/11/06 09:50:21;;;;;;;3.90;2.83;;;32.20;17.10;;;;;;5071471;28;20440;-67
2021/11/06 09:52:54;;;;;;;5.43;3.10;;;32.80;15.90;;;;;;5070314;28;20486;-67
2021/11/06 09:55:24;;;;;;;3.70;3.10;;;33.00;15.90;;;;;;5061596;28;21053;-68
2021/11/06 09:57:52;;;;;;;3.33;2.93;;;33.10;15.70;;;;;;5068587;28;20849;-68
2021/11/06 10:00:24;;;;;;;4.20;3.17;;;33.50;15.60;;;;;;5069411;28;20947;-68
2021/11/06 10:02:56;;;;;;;4.20;3.20;;;34.20;14.80;;;;;;5070124;28;20447;-67
2021/11/06 10:05:50;;;;;;;7.70;7.10;;;34.70;14.30;;;;;;5069315;28;20444;-68
2021/11/06 10:08:20;;;;;;;9.40;8.60;;;35.30;14.50;;;;;;5068527;28;20436;-67
2021/11/06 10:10:49;;;;;;;4.17;3.60;;;36.10;13.70;;;;;;5072642;28;20792;-68
2021/11/06 10:13:18;;;;;;;7.00;5.90;;;36.40;13.20;;;;;;5074688;28;20497;-68
2021/11/06 10:15:50;;;;;;;5.83;3.20;;;37.00;12.80;;;;;;5072814;28;20567;-68
2021/11/06 10:18:19;;;;;;;4.10;3.30;;;37.50;13.20;;;;;;5073362;28;20915;-68
2021/11/06 10:20:47;;;;;;;7.23;6.53;;;37.90;12.60;;;;;;5069605;28;20826;-68
2021/11/06 10:23:18;;;;;;;5.50;4.80;;;38.30;12.20;;;;;;5073207;28;20437;-67
2021/11/06 10:25:45;;;;;;;13.47;12.27;;;38.50;11.60;;;;;;5073250;28;20448;-68
2021/11/06 10:28:14;;;;;;;3.17;2.87;;;38.80;11.30;;;;;;5071812;28;20440;-68
2021/11/06 10:30:42;;;;;;;4.67;4.27;;;39.30;11.10;;;;;;5072746;28;20794;-68
2021/11/06 10:33:13;;;;;;;7.60;3.27;;;39.50;11.00;;;;;;5073710;28;20522;-68
2021/11/06 10:35:43;;;;;;;7.43;6.10;;;39.80;10.80;;;;;;5072226;28;20973;-68
2021/11/06 10:38:12;;;;;;;5.93;5.37;;;39.90;10.60;;;;;;5070372;28;20723;-68
2021/11/06 10:40:43;;;;;;;4.33;3.93;;;40.00;11.00;;;;;;5073333;28;20923;-68
2021/11/06 10:43:13;;;;;;;5.20;4.10;;;40.30;10.60;;;;;;5072839;28;20433;-68
2021/11/06 10:45:45;;;;;;;4.27;3.87;;;40.90;10.20;;;;;;5073500;28;20566;-68
2021/11/06 10:48:17;;;;;;;5.63;5.13;;;41.10;10.30;;;;;;5072756;28;20491;-68
2021/11/06 10:51:02;;;;;;;5.03;4.03;;;41.30;10.00;;;;;;5073091;28;20528;-68
2021/11/06 10:53:48;;;;;;;5.00;4.50;;;41.50;9.80;;;;;;5072819;28;20770;-70
2021/11/06 10:56:32;;;;;;;8.10;7.50;;;41.90;9.50;;;;;;5073192;28;20428;-68
2021/11/06 10:59:03;;;;;;;3.20;2.70;;;42.00;9.40;;;;;;5072466;28;20434;-68
2021/11/06 11:01:36;;;;;;;4.10;3.70;;;42.20;9.50;;;;;;5072865;28;20924;-68
2021/11/06 11:04:09;;;;;;;3.97;2.97;;;42.40;9.40;;;;;;5068843;28;20434;-68
2021/11/06 11:06:39;;;;;;;2.93;2.60;;;42.60;9.40;;;;;;5072476;28;20490;-68
2021/11/06 11:09:12;;;;;;;3.03;2.60;;;42.90;9.10;;;;;;5072405;28;20527;-68
2021/11/06 11:11:40;;;;;;;3.03;2.63;;;42.90;8.60;;;;;;5072871;28;20965;-68
2021/11/06 11:14:20;;;;;;;2.93;2.20;;;42.90;9.10;;;;;;5072094;28;20458;-71
2021/11/06 11:16:54;;;;;;;3.63;2.97;;;42.70;8.80;;;;;;5068914;28;20523;-69
2021/11/06 11:19:32;;;;;;;2.97;2.60;;;42.70;8.70;;;;;;5072732;28;20823;-69
2021/11/06 11:21:59;;;;;;;3.33;2.57;;;42.40;9.00;;;;;;5070024;28;20517;-68
2021/11/06 11:24:26;;;;;;;2.83;2.53;;;42.50;8.80;;;;;;5072701;28;20458;-69
2021/11/06 11:26:56;;;;;;;3.70;3.23;;;42.60;9.00;;;;;;5072503;28;20879;-69
2021/11/06 11:29:28;;;;;;;4.00;3.60;;;42.70;9.00;;;;;;5071923;28;20439;-70
2021/11/06 11:31:56;;;;;;;9.70;8.80;;;42.90;8.80;;;;;;5073009;28;20443;-68
2021/11/06 11:34:24;;;;;;;12.00;10.87;;;43.10;9.10;;;;;;5072097;28;20466;-69
2021/11/06 11:36:53;;;;;;;4.53;2.97;;;43.50;8.50;;;;;;5072258;28;20523;-68
2021/11/06 11:39:24;;;;;;;3.30;2.97;;;43.20;8.90;;;;;;5069785;28;20447;-69
2021/11/06 11:42:16;;;;;;;22.00;20.10;;;43.10;8.60;;;;;;5072461;28;20484;-67
2021/11/06 11:45:17;;;;;;;3.50;3.03;;;43.20;8.60;;;;;;5070916;28;20933;-68
2021/11/06 11:47:51;;;;;;;4.00;3.60;;;42.90;8.30;;;;;;5071985;28;20464;-69
2021/11/06 11:50:26;;;;;;;2.77;2.40;;;42.50;8.50;;;;;;5069678;28;20524;-70
2021/11/06 11:52:54;;;;;;;3.13;2.73;;;42.30;8.30;;;;;;5071509;28;20500;-69
2021/11/06 11:55:38;;;;;;;2.60;2.13;;;41.60;8.40;;;;;;5070970;28;20766;-68
2021/11/06 11:58:09;;;;;;;2.43;1.80;;;41.20;7.40;;;;;;5072083;28;20526;-68
2021/11/06 12:00:43;;;;;;;2.63;1.80;;;40.90;7.40;;;;;;5066441;28;20521;-68
2021/11/06 12:03:32;;;;;;;2.03;1.40;;;40.80;7.60;;;;;;5072169;28;20438;-69
2021/11/06 12:06:01;;;;;;;2.10;1.60;;;40.60;7.70;;;;;;5071214;28;20541;-68
2021/11/06 12:08:34;;;;;;;2.30;1.80;;;40.60;7.80;;;;;;5070883;28;20483;-68
2021/11/06 12:11:19;;;;;;;2.13;1.50;;;40.60;7.80;;;;;;5071454;28;20917;-68
2021/11/06 12:13:50;;;;;;;2.10;1.67;;;40.60;7.80;;;;;;5068044;28;20520;-69
2021/11/06 12:16:19;;;;;;;2.10;1.60;;;40.20;7.50;;;;;;5072448;28;20427;-68
2021/11/06 12:18:59;;;;;;;2.20;1.50;;;40.00;7.80;;;;;;5071329;28;20462;-69
2021/11/06 12:21:33;;;;;;;1.90;1.30;;;39.80;7.90;;;;;;5072107;28;20450;-68
2021/11/06 12:24:29;;;;;;;2.17;1.67;;;39.40;7.90;;;;;;5070557;28;20432;-68
2021/11/06 12:26:59;;;;;;;2.53;2.00;;;39.00;8.70;;;;;;5071478;28;20484;-68
2021/11/06 12:29:47;;;;;;;2.90;2.00;;;38.90;8.60;;;;;;5071616;28;20650;-67
2021/11/06 12:32:17;;;;;;;2.83;1.90;;;39.00;9.10;;;;;;5068428;28;20439;-68
2021/11/06 12:34:47;;;;;;;2.60;2.33;;;39.40;8.60;;;;;;5071930;28;20520;-68
2021/11/06 12:37:57;;;;;;;3.55;3.25;;;39.20;9.00;;;;;;5071245;28;20452;-68
2021/11/06 12:40:31;;;;;;;3.90;3.50;;;38.80;9.50;;;;;;5071353;28;20229;-68
2021/11/06 12:43:12;;;;;;;3.50;3.20;;;38.00;9.80;;;;;;5070088;28;20956;-68
2021/11/06 12:45:44;;;;;;;3.73;3.43;;;36.70;9.80;;;;;;5071605;28;20476;-67
2021/11/06 12:48:12;;;;;;;4.73;3.83;;;34.50;10.40;;;;;;5070914;28;20503;-67
2021/11/06 12:50:47;;;;;;;3.40;3.10;;;32.00;11.80;;;;;;5071785;28;20494;-66
2021/11/06 12:53:25;;;;;;;3.00;2.70;;;29.70;13.20;;;;;;5071022;28;20468;-66
2021/11/06 12:56:01;;;;;;;3.37;2.87;;;27.60;14.90;;;;;;5067341;28;20515;-67
2021/11/06 12:58:29;;;;;;;3.93;3.40;;;25.80;16.10;;;;;;5069327;28;20519;-67
2021/11/06 13:00:56;;;;;;;4.13;3.30;;;24.30;17.80;;;;;;5065591;28;20440;-66
2021/11/06 13:03:39;;;;;;;4.80;3.00;;;22.90;19.00;;;;;;5070512;28;20532;-65
2021/11/06 13:06:21;;;;;;;4.50;3.03;;;21.70;20.90;;;;;;5069372;28;20530;-67
2021/11/06 13:09:16;;;;;;;3.60;2.80;;;20.70;21.60;;;;;;5070618;28;20440;-67
2021/11/06 13:11:56;;;;;;;3.40;2.67;;;19.80;22.90;;;;;;5069147;28;20938;-67
2021/11/06 13:14:35;;;;;;;4.00;3.37;;;19.10;23.40;;;;;;5068199;28;20519;-65